createdAt,value
2023-07-10T00:00:02.021Z,1020.4
2023-07-10T00:01:02.072Z,1020.4
2023-07-10T00:02:01.959Z,1020.4
2023-07-10T00:03:02.003Z,1020.4
2023-07-10T00:04:02.289Z,1020.4
2023-07-10T00:05:01.963Z,1020.4
2023-07-10T00:06:02.674Z,1020.4
2023-07-10T00:07:01.633Z,1020.4
2023-07-10T00:08:01.690Z,1020.5
2023-07-10T00:09:02.590Z,1020.4
2023-07-10T00:10:02.464Z,1020.4
2023-07-10T00:11:02.458Z,1020.4
2023-07-10T00:12:02.324Z,1020.4
2023-07-10T00:13:02.431Z,1020.3
2023-07-10T00:14:02.544Z,1020.4
2023-07-10T00:15:02.369Z,1020.3
2023-07-10T00:16:03.266Z,1020.4
2023-07-10T00:17:02.423Z,1020.3
2023-07-10T00:18:02.375Z,1020.4
2023-07-10T00:19:02.292Z,1020.3
2023-07-10T00:20:02.009Z,1020.3
2023-07-10T00:21:01.847Z,1020.4
2023-07-10T00:22:01.923Z,1020.3
2023-07-10T00:23:01.752Z,1020.3
2023-07-10T00:24:01.698Z,1020.3
2023-07-10T00:25:01.665Z,1020.3
2023-07-10T00:26:02.491Z,1020.3
2023-07-10T00:27:02.309Z,1020.3
2023-07-10T00:28:02.194Z,1020.3
2023-07-10T00:29:02.246Z,1020.2
2023-07-10T00:30:02.093Z,1020.2
2023-07-10T00:31:01.870Z,1020.3
2023-07-10T00:32:01.826Z,1020.3
2023-07-10T00:33:01.893Z,1020.2
2023-07-10T00:34:01.782Z,1020.3
2023-07-10T00:35:01.605Z,1020.3
2023-07-10T00:36:03.481Z,1020.4
2023-07-10T00:37:02.310Z,1020.4
2023-07-10T00:38:02.409Z,1020.4
2023-07-10T00:39:02.228Z,1020.4
2023-07-10T00:40:02.093Z,1020.4
2023-07-10T00:41:02.153Z,1020.4
2023-07-10T00:42:01.973Z,1020.4
2023-07-10T00:43:02.166Z,1020.4
2023-07-10T00:44:01.805Z,1020.4
2023-07-10T00:45:01.916Z,1020.4
2023-07-10T00:46:03.536Z,1020.5
2023-07-10T00:47:02.598Z,1020.4
2023-07-10T00:48:02.700Z,1020.4
2023-07-10T00:49:02.474Z,1020.5
2023-07-10T00:50:02.415Z,1020.4
2023-07-10T00:51:02.444Z,1020.4
2023-07-10T00:52:02.322Z,1020.4
2023-07-10T00:53:02.363Z,1020.3
2023-07-10T00:54:02.373Z,1020.3
2023-07-10T00:55:02.154Z,1020.3
2023-07-10T00:56:03.671Z,1020.3
2023-07-10T00:57:02.580Z,1020.3
2023-07-10T00:58:16.629Z,1020.3
2023-07-10T00:59:01.653Z,1020.3
2023-07-10T01:00:03.678Z,1020.2
2023-07-10T01:02:02.718Z,1020.3
2023-07-10T01:03:02.550Z,1020.2
2023-07-10T01:04:02.509Z,1020.2
2023-07-10T01:05:02.388Z,1020.3
2023-07-10T01:06:03.199Z,1020.2
2023-07-10T01:07:01.870Z,1020.2
2023-07-10T01:08:01.930Z,1020.2
2023-07-10T01:09:01.781Z,1020.2
2023-07-10T01:10:01.794Z,1020.1
2023-07-10T01:11:01.646Z,1020.2
2023-07-10T01:12:01.705Z,1020.1
2023-07-10T01:13:01.605Z,1020.1
2023-07-10T01:14:01.916Z,1020.1
2023-07-10T01:15:02.691Z,1020.1
2023-07-10T01:16:03.593Z,1020.1
2023-07-10T01:17:02.679Z,1020.1
2023-07-10T01:18:02.558Z,1020.1
2023-07-10T01:19:02.414Z,1020.2
2023-07-10T01:20:02.474Z,1020.1
2023-07-10T01:21:02.395Z,1020.1
2023-07-10T01:22:02.465Z,1020.1
2023-07-10T01:23:02.429Z,1020.1
2023-07-10T01:24:02.343Z,1020.1
2023-07-10T01:25:02.442Z,1020.2
2023-07-10T01:26:03.132Z,1020.1
2023-07-10T01:27:01.905Z,1020.2
2023-07-10T01:28:01.782Z,1020.1
2023-07-10T01:29:01.837Z,1020.1
2023-07-10T01:30:01.823Z,1020.1
2023-07-10T01:31:02.746Z,1020.1
2023-07-10T01:32:02.645Z,1020.1
2023-07-10T01:33:02.788Z,1020.1
2023-07-10T01:34:02.544Z,1020.1
2023-07-10T01:35:02.491Z,1020.1
2023-07-10T01:36:03.947Z,1020.1
2023-07-10T01:37:01.691Z,1020
2023-07-10T01:38:01.687Z,1020
2023-07-10T01:39:01.640Z,1020
2023-07-10T01:40:01.713Z,1020
2023-07-10T01:41:01.607Z,1019.9
2023-07-10T01:42:01.767Z,1020
2023-07-10T01:43:01.738Z,1020
2023-07-10T01:44:01.774Z,1020
2023-07-10T01:45:01.689Z,1020
2023-07-10T01:46:03.773Z,1020
2023-07-10T01:47:01.850Z,1020.1
2023-07-10T01:48:02.141Z,1020.1
2023-07-10T01:49:02.574Z,1020
2023-07-10T01:50:02.451Z,1020
2023-07-10T01:51:02.371Z,1020
2023-07-10T01:52:02.432Z,1020
2023-07-10T01:53:02.410Z,1019.9
2023-07-10T01:54:02.275Z,1019.9
2023-07-10T01:55:02.395Z,1019.9
2023-07-10T01:56:03.586Z,1019.9
2023-07-10T01:57:02.627Z,1019.9
2023-07-10T01:58:02.477Z,1019.9
2023-07-10T01:59:02.428Z,1020
2023-07-10T02:00:02.431Z,1019.9
2023-07-10T02:01:02.187Z,1020
2023-07-10T02:02:02.431Z,1019.9
2023-07-10T02:03:02.505Z,1019.9
2023-07-10T02:04:02.317Z,1019.9
2023-07-10T02:05:02.263Z,1019.9
2023-07-10T02:06:02.642Z,1019.9
2023-07-10T02:07:02.557Z,1019.9
2023-07-10T02:08:02.525Z,1019.8
2023-07-10T02:09:02.440Z,1019.8
2023-07-10T02:10:02.547Z,1019.9
2023-07-10T02:11:02.525Z,1019.9
2023-07-10T02:12:02.530Z,1019.9
2023-07-10T02:13:02.459Z,1019.9
2023-07-10T02:14:02.627Z,1019.9
2023-07-10T02:15:02.378Z,1019.8
2023-07-10T02:16:03.285Z,1019.8
2023-07-10T02:17:02.219Z,1019.8
2023-07-10T02:18:02.213Z,1019.8
2023-07-10T02:19:02.021Z,1019.8
2023-07-10T02:20:02.053Z,1019.9
2023-07-10T02:21:01.967Z,1019.8
2023-07-10T02:22:02.029Z,1019.8
2023-07-10T02:23:03.188Z,1019.8
2023-07-10T02:24:02.438Z,1019.9
2023-07-10T02:25:02.470Z,1019.8
2023-07-10T02:26:03.389Z,1019.8
2023-07-10T02:27:02.224Z,1019.9
2023-07-10T02:28:02.416Z,1019.9
2023-07-10T02:29:02.090Z,1019.8
2023-07-10T02:30:02.162Z,1019.8
2023-07-10T02:31:01.925Z,1019.8
2023-07-10T02:32:02.367Z,1019.8
2023-07-10T02:33:02.263Z,1019.8
2023-07-10T02:34:02.017Z,1019.8
2023-07-10T02:35:01.972Z,1019.8
2023-07-10T02:36:02.608Z,1019.9
2023-07-10T02:37:02.572Z,1019.9
2023-07-10T02:38:02.568Z,1019.9
2023-07-10T02:39:02.459Z,1019.8
2023-07-10T02:40:02.640Z,1019.9
2023-07-10T02:41:02.528Z,1019.9
2023-07-10T02:42:02.557Z,1019.9
2023-07-10T02:43:02.451Z,1019.9
2023-07-10T02:44:02.540Z,1019.8
2023-07-10T02:45:02.459Z,1020
2023-07-10T02:46:03.184Z,1019.9
2023-07-10T02:47:02.204Z,1020
2023-07-10T02:48:02.397Z,1020
2023-07-10T02:49:02.184Z,1020
2023-07-10T02:50:02.120Z,1020
2023-07-10T02:51:02.203Z,1020
2023-07-10T02:52:02.004Z,1020.1
2023-07-10T02:53:02.093Z,1020
2023-07-10T02:54:01.897Z,1020
2023-07-10T02:55:01.910Z,1020.1
2023-07-10T02:56:02.237Z,1020.1
2023-07-10T02:57:02.054Z,1020.1
2023-07-10T02:58:02.100Z,1020.1
2023-07-10T02:59:02.116Z,1020.1
2023-07-10T03:00:02.506Z,1020.1
2023-07-10T03:02:01.892Z,1020.2
2023-07-10T03:03:02.039Z,1020.1
2023-07-10T03:04:01.993Z,1020.1
2023-07-10T03:05:01.945Z,1020.1
2023-07-10T03:06:02.546Z,1020.1
2023-07-10T03:07:04.863Z,1020.1
2023-07-10T03:08:02.469Z,1020.1
2023-07-10T03:09:02.582Z,1020.1
2023-07-10T03:10:02.530Z,1020
2023-07-10T03:11:02.584Z,1020
2023-07-10T03:12:02.468Z,1020.1
2023-07-10T03:13:02.542Z,1020
2023-07-10T03:14:02.518Z,1020.1
2023-07-10T03:15:02.456Z,1020
2023-07-10T03:16:03.285Z,1020
2023-07-10T03:17:02.437Z,1020
2023-07-10T03:18:02.561Z,1020
2023-07-10T03:19:02.313Z,1020
2023-07-10T03:20:02.357Z,1020
2023-07-10T03:21:02.381Z,1020
2023-07-10T03:22:02.229Z,1019.9
2023-07-10T03:23:02.250Z,1020
2023-07-10T03:24:02.499Z,1020
2023-07-10T03:25:02.119Z,1019.9
2023-07-10T03:26:02.313Z,1020
2023-07-10T03:27:02.288Z,1019.9
2023-07-10T03:28:02.140Z,1019.9
2023-07-10T03:29:02.152Z,1019.9
2023-07-10T03:30:02.084Z,1020
2023-07-10T03:31:02.069Z,1019.8
2023-07-10T03:32:01.931Z,1019.9
2023-07-10T03:33:01.846Z,1019.9
2023-07-10T03:34:01.789Z,1019.9
2023-07-10T03:35:01.657Z,1019.8
2023-07-10T03:36:03.249Z,1019.9
2023-07-10T03:37:02.034Z,1019.8
2023-07-10T03:38:02.508Z,1019.8
2023-07-10T03:39:02.222Z,1019.8
2023-07-10T03:40:02.089Z,1019.8
2023-07-10T03:41:02.127Z,1019.7
2023-07-10T03:42:01.992Z,1019.7
2023-07-10T03:43:01.975Z,1019.8
2023-07-10T03:44:01.933Z,1019.8
2023-07-10T03:45:01.959Z,1019.7
2023-07-10T03:46:02.884Z,1019.7
2023-07-10T03:47:01.969Z,1019.8
2023-07-10T03:48:02.114Z,1019.8
2023-07-10T03:49:01.870Z,1019.8
2023-07-10T03:50:01.956Z,1019.8
2023-07-10T03:51:01.799Z,1019.8
2023-07-10T03:52:01.797Z,1019.8
2023-07-10T03:53:01.651Z,1019.8
2023-07-10T03:54:01.674Z,1019.8
2023-07-10T03:55:01.604Z,1019.8
2023-07-10T03:56:02.367Z,1019.8
2023-07-10T03:57:02.015Z,1019.8
2023-07-10T03:58:02.049Z,1019.9
2023-07-10T03:59:01.923Z,1019.8
2023-07-10T04:00:02.088Z,1019.9
2023-07-10T04:01:02.077Z,1019.8
2023-07-10T04:02:01.843Z,1019.7
2023-07-10T04:03:02.056Z,1019.8
2023-07-10T04:04:01.855Z,1019.8
2023-07-10T04:05:01.670Z,1019.8
2023-07-10T04:06:02.319Z,1019.8
2023-07-10T04:07:02.341Z,1019.9
2023-07-10T04:08:02.016Z,1019.8
2023-07-10T04:09:02.120Z,1019.8
2023-07-10T04:10:02.007Z,1019.9
2023-07-10T04:11:02.077Z,1019.8
2023-07-10T04:12:01.976Z,1019.8
2023-07-10T04:13:02.078Z,1019.8
2023-07-10T04:14:02.086Z,1019.9
2023-07-10T04:15:01.989Z,1019.9
2023-07-10T04:16:04.144Z,1019.8
2023-07-10T04:17:02.358Z,1019.8
2023-07-10T04:18:02.340Z,1019.8
2023-07-10T04:19:02.093Z,1019.8
2023-07-10T04:20:02.157Z,1019.9
2023-07-10T04:21:02.042Z,1019.9
2023-07-10T04:22:02.063Z,1019.9
2023-07-10T04:23:01.988Z,1020
2023-07-10T04:24:02.444Z,1019.9
2023-07-10T04:25:02.046Z,1019.8
2023-07-10T04:26:03.279Z,1019.8
2023-07-10T04:27:02.245Z,1019.8
2023-07-10T04:28:02.156Z,1019.8
2023-07-10T04:29:02.227Z,1019.8
2023-07-10T04:30:02.313Z,1019.8
2023-07-10T04:31:02.112Z,1019.8
2023-07-10T04:32:02.069Z,1019.8
2023-07-10T04:33:02.248Z,1019.8
2023-07-10T04:34:02.058Z,1019.9
2023-07-10T04:35:01.958Z,1019.8
2023-07-10T04:36:02.839Z,1019.8
2023-07-10T04:37:01.656Z,1019.9
2023-07-10T04:38:01.706Z,1019.8
2023-07-10T04:39:01.608Z,1019.9
2023-07-10T04:40:01.755Z,1019.8
2023-07-10T04:41:01.649Z,1019.8
2023-07-10T04:42:01.794Z,1019.8
2023-07-10T04:43:01.663Z,1019.8
2023-07-10T04:44:01.682Z,1019.9
2023-07-10T04:45:02.659Z,1019.9
2023-07-10T04:46:03.293Z,1019.8
2023-07-10T04:47:02.231Z,1019.9
2023-07-10T04:48:02.454Z,1019.8
2023-07-10T04:49:02.147Z,1019.8
2023-07-10T04:50:02.225Z,1019.7
2023-07-10T04:51:02.076Z,1019.8
2023-07-10T04:52:02.103Z,1019.8
2023-07-10T04:53:02.056Z,1019.9
2023-07-10T04:54:02.163Z,1019.9
2023-07-10T04:55:02.013Z,1019.9
2023-07-10T04:56:03.289Z,1019.9
2023-07-10T04:57:02.237Z,1019.9
2023-07-10T04:58:02.076Z,1019.8
2023-07-10T04:59:02.171Z,1019.9
2023-07-10T05:00:03.282Z,1019.9
2023-07-10T05:02:01.985Z,1019.9
2023-07-10T05:03:02.023Z,1019.9
2023-07-10T05:04:02.025Z,1020
2023-07-10T05:05:01.844Z,1019.9
2023-07-10T05:06:01.837Z,1020
2023-07-10T05:07:01.634Z,1019.9
2023-07-10T05:08:01.772Z,1020
2023-07-10T05:09:01.675Z,1020
2023-07-10T05:10:01.763Z,1020
2023-07-10T05:11:01.607Z,1020
2023-07-10T05:12:01.766Z,1020
2023-07-10T05:13:01.649Z,1020.1
2023-07-10T05:14:01.884Z,1020.1
2023-07-10T05:15:01.676Z,1020
2023-07-10T05:16:02.814Z,1020
2023-07-10T05:17:01.740Z,1020.1
2023-07-10T05:18:01.752Z,1020
2023-07-10T05:19:01.701Z,1020
2023-07-10T05:20:01.690Z,1020.1
2023-07-10T05:21:01.762Z,1020.1
2023-07-10T05:22:01.672Z,1020
2023-07-10T05:23:01.708Z,1020
2023-07-10T05:24:01.665Z,1020.1
2023-07-10T05:25:01.680Z,1020.1
2023-07-10T05:26:03.923Z,1020.1
2023-07-10T05:27:01.741Z,1020.1
2023-07-10T05:28:01.787Z,1020.1
2023-07-10T05:29:01.690Z,1020.1
2023-07-10T05:30:01.818Z,1020.1
2023-07-10T05:31:03.977Z,1020.1
2023-07-10T05:32:01.955Z,1020.1
2023-07-10T05:33:01.921Z,1020.1
2023-07-10T05:34:02.682Z,1020.1
2023-07-10T05:35:02.523Z,1020.1
2023-07-10T05:36:03.535Z,1020.1
2023-07-10T05:37:02.284Z,1020.1
2023-07-10T05:38:02.214Z,1020.1
2023-07-10T05:39:02.229Z,1020.1
2023-07-10T05:40:02.146Z,1020.1
2023-07-10T05:41:02.217Z,1020.1
2023-07-10T05:42:02.197Z,1020
2023-07-10T05:43:02.244Z,1020.1
2023-07-10T05:44:02.133Z,1020.1
2023-07-10T05:45:02.055Z,1020.1
2023-07-10T05:46:02.539Z,1020
2023-07-10T05:47:02.341Z,1020.1
2023-07-10T05:48:02.402Z,1020.1
2023-07-10T05:49:02.273Z,1020.1
2023-07-10T05:50:02.356Z,1020.1
2023-07-10T05:51:02.413Z,1020.2
2023-07-10T05:52:02.207Z,1020.1
2023-07-10T05:53:02.341Z,1020.1
2023-07-10T05:54:02.264Z,1020
2023-07-10T05:55:02.168Z,1020.1
2023-07-10T05:56:02.712Z,1020
2023-07-10T05:57:02.458Z,1020.1
2023-07-10T05:58:02.366Z,1020.1
2023-07-10T05:59:02.445Z,1020
2023-07-10T06:00:03.239Z,1020
2023-07-10T06:02:02.674Z,1020
2023-07-10T06:03:02.781Z,1020
2023-07-10T06:04:02.653Z,1020
2023-07-10T06:05:02.502Z,1020
2023-07-10T06:06:03.595Z,1020
2023-07-10T06:07:02.385Z,1019.9
2023-07-10T06:08:02.432Z,1020
2023-07-10T06:09:02.412Z,1019.9
2023-07-10T06:10:02.348Z,1019.9
2023-07-10T06:11:02.489Z,1019.9
2023-07-10T06:12:02.278Z,1019.9
2023-07-10T06:13:02.188Z,1019.9
2023-07-10T06:14:02.493Z,1019.9
2023-07-10T06:15:02.311Z,1019.9
2023-07-10T06:16:01.953Z,1019.9
2023-07-10T06:17:01.870Z,1019.9
2023-07-10T06:18:02.050Z,1019.8
2023-07-10T06:19:01.829Z,1019.8
2023-07-10T06:20:01.686Z,1019.9
2023-07-10T06:21:01.795Z,1019.9
2023-07-10T06:22:01.661Z,1019.9
2023-07-10T06:23:01.686Z,1019.9
2023-07-10T06:24:02.644Z,1019.9
2023-07-10T06:25:02.518Z,1019.9
2023-07-10T06:26:03.645Z,1019.9
2023-07-10T06:27:03.674Z,1020
2023-07-10T06:28:01.688Z,1019.9
2023-07-10T06:29:01.686Z,1019.9
2023-07-10T06:30:02.591Z,1019.9
2023-07-10T06:32:02.247Z,1019.8
2023-07-10T06:33:02.182Z,1019.8
2023-07-10T06:34:02.082Z,1019.8
2023-07-10T06:35:02.038Z,1019.9
2023-07-10T06:36:02.467Z,1019.8
2023-07-10T06:37:02.172Z,1019.8
2023-07-10T06:38:02.196Z,1019.8
2023-07-10T06:39:02.168Z,1019.8
2023-07-10T06:40:02.124Z,1019.8
2023-07-10T06:41:02.258Z,1019.8
2023-07-10T06:42:02.064Z,1019.8
2023-07-10T06:43:02.008Z,1019.8
2023-07-10T06:44:01.972Z,1019.8
2023-07-10T06:45:02.010Z,1019.8
2023-07-10T06:46:02.315Z,1019.8
2023-07-10T06:47:02.044Z,1019.8
2023-07-10T06:48:02.095Z,1019.8
2023-07-10T06:49:01.948Z,1019.8
2023-07-10T06:50:05.959Z,1019.8
2023-07-10T06:51:01.621Z,1019.7
2023-07-10T06:52:02.737Z,1019.7
2023-07-10T06:53:28.089Z,1019.8
2023-07-10T06:54:02.089Z,1019.8
2023-07-10T06:55:02.061Z,1019.8
2023-07-10T06:56:03.971Z,1019.8
2023-07-10T06:57:01.716Z,1019.8
2023-07-10T06:58:01.804Z,1019.8
2023-07-10T06:59:01.703Z,1019.8
2023-07-10T07:00:02.657Z,1019.7
2023-07-10T07:01:03.478Z,1019.8
2023-07-10T07:02:02.237Z,1019.8
2023-07-10T07:03:02.595Z,1019.8
2023-07-10T07:04:02.603Z,1019.8
2023-07-10T07:05:02.283Z,1019.8
2023-07-10T07:06:02.404Z,1019.8
2023-07-10T07:07:02.276Z,1019.9
2023-07-10T07:08:02.293Z,1019.9
2023-07-10T07:09:02.208Z,1019.8
2023-07-10T07:10:02.163Z,1019.8
2023-07-10T07:11:02.051Z,1019.9
2023-07-10T07:12:02.013Z,1019.8
2023-07-10T07:13:02.017Z,1019.9
2023-07-10T07:14:02.085Z,1019.8
2023-07-10T07:15:01.895Z,1019.8
2023-07-10T07:16:01.606Z,1019.8
2023-07-10T07:17:01.765Z,1019.8
2023-07-10T07:18:02.848Z,1019.8
2023-07-10T07:19:13.361Z,1019.8
2023-07-10T07:20:02.058Z,1019.8
2023-07-10T07:21:02.100Z,1019.8
2023-07-10T07:22:02.002Z,1019.8
2023-07-10T07:23:01.911Z,1019.7
2023-07-10T07:24:01.924Z,1019.8
2023-07-10T07:25:01.823Z,1019.7
2023-07-10T07:26:01.846Z,1019.7
2023-07-10T07:27:01.770Z,1019.7
2023-07-10T07:28:02.139Z,1019.7
2023-07-10T07:29:01.800Z,1019.7
2023-07-10T07:30:01.741Z,1019.7
2023-07-10T07:31:02.661Z,1019.7
2023-07-10T07:32:02.347Z,1019.7
2023-07-10T07:33:03.499Z,1019.6
2023-07-10T07:34:02.179Z,1019.6
2023-07-10T07:35:02.122Z,1019.7
2023-07-10T07:36:02.914Z,1019.7
2023-07-10T07:37:02.608Z,1019.7
2023-07-10T07:38:02.517Z,1019.7
2023-07-10T07:39:02.644Z,1019.6
2023-07-10T07:40:02.543Z,1019.7
2023-07-10T07:41:02.459Z,1019.7
2023-07-10T07:42:02.412Z,1019.7
2023-07-10T07:43:02.342Z,1019.7
2023-07-10T07:44:02.359Z,1019.7
2023-07-10T07:45:02.361Z,1019.6
2023-07-10T07:47:01.885Z,1019.7
2023-07-10T07:48:02.250Z,1019.7
2023-07-10T07:49:04.333Z,1019.7
2023-07-10T07:50:02.154Z,1019.7
2023-07-10T07:51:02.093Z,1019.8
2023-07-10T07:52:02.035Z,1019.8
2023-07-10T07:53:02.066Z,1019.8
2023-07-10T07:54:02.062Z,1019.7
2023-07-10T07:55:02.010Z,1019.8
2023-07-10T07:56:02.606Z,1019.7
2023-07-10T07:57:02.542Z,1019.7
2023-07-10T07:58:02.533Z,1019.7
2023-07-10T07:59:02.972Z,1019.7
2023-07-10T08:00:01.828Z,1019.7
2023-07-10T08:01:02.018Z,1019.7
2023-07-10T08:02:01.951Z,1019.6
2023-07-10T08:03:02.181Z,1019.7
2023-07-10T08:04:02.225Z,1019.7
2023-07-10T08:05:02.397Z,1019.7
2023-07-10T08:06:02.587Z,1019.7
2023-07-10T08:07:02.319Z,1019.7
2023-07-10T08:08:02.330Z,1019.7
2023-07-10T08:09:02.766Z,1019.6
2023-07-10T08:10:02.431Z,1019.6
2023-07-10T08:11:02.389Z,1019.6
2023-07-10T08:12:04.442Z,1019.6
2023-07-10T08:13:02.036Z,1019.6
2023-07-10T08:14:02.383Z,1019.6
2023-07-10T08:15:02.038Z,1019.6
2023-07-10T08:17:04.218Z,1019.6
2023-07-10T08:18:02.585Z,1019.6
2023-07-10T08:19:02.518Z,1019.5
2023-07-10T08:20:02.434Z,1019.5
2023-07-10T08:21:02.390Z,1019.5
2023-07-10T08:22:02.314Z,1019.5
2023-07-10T08:23:02.270Z,1019.5
2023-07-10T08:24:02.385Z,1019.5
2023-07-10T08:25:02.245Z,1019.5
2023-07-10T08:26:03.405Z,1019.4
2023-07-10T08:27:02.192Z,1019.4
2023-07-10T08:28:02.074Z,1019.4
2023-07-10T08:29:02.060Z,1019.4
2023-07-10T08:30:02.193Z,1019.4
2023-07-10T08:31:02.712Z,1019.4
2023-07-10T08:32:02.509Z,1019.4
2023-07-10T08:33:02.644Z,1019.4
2023-07-10T08:34:02.451Z,1019.4
2023-07-10T08:35:02.555Z,1019.5
2023-07-10T08:36:03.144Z,1019.5
2023-07-10T08:37:01.949Z,1019.4
2023-07-10T08:38:01.944Z,1019.5
2023-07-10T08:39:01.944Z,1019.5
2023-07-10T08:40:02.107Z,1019.5
2023-07-10T08:41:01.748Z,1019.5
2023-07-10T08:42:01.635Z,1019.4
2023-07-10T08:43:01.603Z,1019.5
2023-07-10T08:44:01.606Z,1019.5
2023-07-10T08:45:02.106Z,1019.5
2023-07-10T08:46:02.828Z,1019.5
2023-07-10T08:47:01.842Z,1019.4
2023-07-10T08:48:01.696Z,1019.4
2023-07-10T08:49:01.618Z,1019.4
2023-07-10T08:50:03.094Z,1019.4
2023-07-10T08:51:01.732Z,1019.4
2023-07-10T08:52:01.627Z,1019.4
2023-07-10T08:53:01.563Z,1019.5
2023-07-10T08:54:02.566Z,1019.4
2023-07-10T08:55:02.550Z,1019.5
2023-07-10T08:56:03.912Z,1019.4
2023-07-10T08:57:01.646Z,1019.4
2023-07-10T08:58:01.621Z,1019.5
2023-07-10T08:59:01.592Z,1019.5
2023-07-10T09:00:03.240Z,1019.5
2023-07-10T09:02:02.377Z,1019.6
2023-07-10T09:03:02.324Z,1019.5
2023-07-10T09:04:02.268Z,1019.5
2023-07-10T09:05:02.011Z,1019.5
2023-07-10T09:06:03.001Z,1019.5
2023-07-10T09:07:01.784Z,1019.5
2023-07-10T09:08:01.753Z,1019.4
2023-07-10T09:09:01.707Z,1019.5
2023-07-10T09:10:01.734Z,1019.5
2023-07-10T09:11:03.057Z,1019.5
2023-07-10T09:12:01.716Z,1019.5
2023-07-10T09:13:01.606Z,1019.5
2023-07-10T09:14:01.798Z,1019.6
2023-07-10T09:15:01.721Z,1019.5
2023-07-10T09:16:02.700Z,1019.5
2023-07-10T09:17:02.764Z,1019.4
2023-07-10T09:18:02.541Z,1019.5
2023-07-10T09:19:02.588Z,1019.5
2023-07-10T09:20:02.616Z,1019.5
2023-07-10T09:21:02.417Z,1019.5
2023-07-10T09:22:02.367Z,1019.5
2023-07-10T09:23:02.295Z,1019.6
2023-07-10T09:24:02.257Z,1019.5
2023-07-10T09:25:02.255Z,1019.6
2023-07-10T09:26:02.337Z,1019.5
2023-07-10T09:27:02.336Z,1019.5
2023-07-10T09:28:02.189Z,1019.6
2023-07-10T09:29:02.174Z,1019.5
2023-07-10T09:30:02.142Z,1019.5
2023-07-10T09:32:01.846Z,1019.5
2023-07-10T09:33:01.995Z,1019.5
2023-07-10T09:34:01.632Z,1019.4
2023-07-10T09:35:01.563Z,1019.4
2023-07-10T09:36:03.726Z,1019.5
2023-07-10T09:37:06.619Z,1019.5
2023-07-10T09:38:02.381Z,1019.5
2023-07-10T09:39:02.254Z,1019.4
2023-07-10T09:40:02.238Z,1019.5
2023-07-10T09:41:02.158Z,1019.5
2023-07-10T09:42:02.141Z,1019.5
2023-07-10T09:43:02.392Z,1019.5
2023-07-10T09:44:02.115Z,1019.5
2023-07-10T09:45:02.103Z,1019.5
2023-07-10T09:47:01.816Z,1019.5
2023-07-10T09:48:01.933Z,1019.5
2023-07-10T09:49:01.730Z,1019.4
2023-07-10T09:50:01.683Z,1019.4
2023-07-10T09:51:02.558Z,1019.4
2023-07-10T09:52:02.548Z,1019.5
2023-07-10T09:53:02.655Z,1019.5
2023-07-10T09:54:02.539Z,1019.4
2023-07-10T09:55:02.480Z,1019.4
2023-07-10T09:56:03.267Z,1019.4
2023-07-10T09:57:02.047Z,1019.5
2023-07-10T09:58:02.099Z,1019.4
2023-07-10T09:59:02.024Z,1019.4
2023-07-10T10:00:03.475Z,1019.5
2023-07-10T10:02:02.588Z,1019.5
2023-07-10T10:03:02.527Z,1019.5
2023-07-10T10:04:03.023Z,1019.4
2023-07-10T10:05:01.672Z,1019.4
2023-07-10T10:06:01.776Z,1019.4
2023-07-10T10:07:01.672Z,1019.4
2023-07-10T10:08:01.656Z,1019.4
2023-07-10T10:09:01.623Z,1019.4
2023-07-10T10:10:03.226Z,1019.4
2023-07-10T10:11:01.917Z,1019.4
2023-07-10T10:12:01.860Z,1019.4
2023-07-10T10:13:01.822Z,1019.4
2023-07-10T10:14:02.271Z,1019.4
2023-07-10T10:15:02.105Z,1019.5
2023-07-10T10:16:01.637Z,1019.5
2023-07-10T10:17:02.582Z,1019.5
2023-07-10T10:18:03.237Z,1019.4
2023-07-10T10:19:02.323Z,1019.4
2023-07-10T10:20:02.072Z,1019.5
2023-07-10T10:21:02.491Z,1019.4
2023-07-10T10:22:02.256Z,1019.4
2023-07-10T10:23:02.187Z,1019.4
2023-07-10T10:24:02.198Z,1019.4
2023-07-10T10:25:02.164Z,1019.4
2023-07-10T10:26:02.615Z,1019.4
2023-07-10T10:27:02.357Z,1019.5
2023-07-10T10:28:02.325Z,1019.4
2023-07-10T10:29:02.385Z,1019.4
2023-07-10T10:30:02.310Z,1019.5
2023-07-10T10:31:02.452Z,1019.4
2023-07-10T10:32:02.312Z,1019.4
2023-07-10T10:33:02.362Z,1019.3
2023-07-10T10:34:02.086Z,1019.4
2023-07-10T10:35:02.094Z,1019.4
2023-07-10T10:36:02.780Z,1019.4
2023-07-10T10:37:01.699Z,1019.3
2023-07-10T10:38:01.708Z,1019.3
2023-07-10T10:39:01.703Z,1019.3
2023-07-10T10:40:01.617Z,1019.3
2023-07-10T10:41:01.774Z,1019.3
2023-07-10T10:42:02.685Z,1019.2
2023-07-10T10:43:02.548Z,1019.3
2023-07-10T10:44:02.526Z,1019.2
2023-07-10T10:45:02.549Z,1019.2
2023-07-10T10:46:02.365Z,1019.2
2023-07-10T10:47:02.155Z,1019.2
2023-07-10T10:48:02.131Z,1019.2
2023-07-10T10:49:02.137Z,1019.2
2023-07-10T10:50:02.088Z,1019.2
2023-07-10T10:51:02.183Z,1019.2
2023-07-10T10:52:02.227Z,1019.2
2023-07-10T10:53:02.011Z,1019.1
2023-07-10T10:54:01.949Z,1019.2
2023-07-10T10:55:01.948Z,1019.1
2023-07-10T10:56:03.079Z,1019.2
2023-07-10T10:57:01.895Z,1019.2
2023-07-10T10:58:01.828Z,1019.2
2023-07-10T10:59:01.767Z,1019.2
2023-07-10T11:00:02.744Z,1019.2
2023-07-10T11:02:02.263Z,1019.1
2023-07-10T11:03:02.568Z,1019.1
2023-07-10T11:04:02.449Z,1019.1
2023-07-10T11:05:02.254Z,1019.1
2023-07-10T11:06:03.407Z,1019.1
2023-07-10T11:07:02.396Z,1019.1
2023-07-10T11:08:02.253Z,1019.1
2023-07-10T11:09:02.197Z,1019
2023-07-10T11:10:02.157Z,1019.1
2023-07-10T11:11:02.130Z,1019.1
2023-07-10T11:12:02.074Z,1019.1
2023-07-10T11:13:02.119Z,1019.2
2023-07-10T11:14:02.312Z,1019.2
2023-07-10T11:15:02.058Z,1019.2
2023-07-10T11:16:01.825Z,1019.2
2023-07-10T11:17:01.689Z,1019.2
2023-07-10T11:18:01.808Z,1019.3
2023-07-10T11:19:01.615Z,1019.2
2023-07-10T11:20:02.606Z,1019.2
2023-07-10T11:21:02.551Z,1019.3
2023-07-10T11:22:02.529Z,1019.3
2023-07-10T11:23:02.522Z,1019.3
2023-07-10T11:24:02.560Z,1019.2
2023-07-10T11:25:02.628Z,1019.2
2023-07-10T11:26:03.658Z,1019.2
2023-07-10T11:27:02.516Z,1019.3
2023-07-10T11:28:02.534Z,1019.2
2023-07-10T11:29:09.369Z,1019.2
2023-07-10T11:30:01.996Z,1019.2
2023-07-10T11:32:01.619Z,1019.2
2023-07-10T11:33:01.800Z,1019.2
2023-07-10T11:34:01.673Z,1019.2
2023-07-10T11:35:21.901Z,1019.2
2023-07-10T11:36:01.757Z,1019.2
2023-07-10T11:37:01.705Z,1019.2
2023-07-10T11:38:01.698Z,1019.2
2023-07-10T11:39:01.630Z,1019
2023-07-10T11:40:02.703Z,1019.1
2023-07-10T11:41:02.585Z,1019.2
2023-07-10T11:42:02.613Z,1019.1
2023-07-10T11:43:01.599Z,1019.1
2023-07-10T11:44:01.642Z,1019.1
2023-07-10T11:45:01.629Z,1019.2
2023-07-10T11:46:01.762Z,1019.1
2023-07-10T11:47:02.007Z,1019.1
2023-07-10T11:48:02.001Z,1019.1
2023-07-10T11:49:01.684Z,1019.1
2023-07-10T11:50:01.694Z,1019.1
2023-07-10T11:51:01.579Z,1019
2023-07-10T11:52:01.701Z,1018.9
2023-07-10T11:53:01.612Z,1019
2023-07-10T11:54:01.711Z,1019
2023-07-10T11:55:01.625Z,1019
2023-07-10T11:56:03.666Z,1019
2023-07-10T11:57:04.336Z,1019
2023-07-10T11:58:02.348Z,1019
2023-07-10T11:59:02.343Z,1019
2023-07-10T12:00:03.140Z,1019
2023-07-10T12:01:03.514Z,1019
2023-07-10T12:02:05.891Z,1018.9
2023-07-10T12:03:02.734Z,1018.9
2023-07-10T12:04:02.740Z,1019
2023-07-10T12:05:02.518Z,1018.8
2023-07-10T12:06:03.372Z,1018.9
2023-07-10T12:07:02.104Z,1018.9
2023-07-10T12:08:07.989Z,1018.8
2023-07-10T12:09:01.592Z,1018.9
2023-07-10T12:10:01.738Z,1018.8
2023-07-10T12:11:01.594Z,1018.8
2023-07-10T12:12:01.677Z,1018.7
2023-07-10T12:13:01.623Z,1018.8
2023-07-10T12:14:01.799Z,1018.7
2023-07-10T12:15:01.625Z,1018.7
2023-07-10T12:16:03.218Z,1018.7
2023-07-10T12:17:41.230Z,1018.6
2023-07-10T12:18:02.167Z,1018.6
2023-07-10T12:19:02.315Z,1018.6
2023-07-10T12:20:01.976Z,1018.6
2023-07-10T12:21:02.010Z,1018.5
2023-07-10T12:22:01.871Z,1018.6
2023-07-10T12:23:01.865Z,1018.5
2023-07-10T12:24:01.852Z,1018.4
2023-07-10T12:25:01.937Z,1018.4
2023-07-10T12:26:01.725Z,1018.4
2023-07-10T12:28:02.223Z,1018.3
2023-07-10T12:29:01.894Z,1018.1
2023-07-10T12:30:01.951Z,1018.1
2023-07-10T12:31:02.212Z,1018.1
2023-07-10T12:32:01.902Z,1018
2023-07-10T12:33:02.080Z,1018.1
2023-07-10T12:34:01.754Z,1018
2023-07-10T12:35:01.747Z,1018.1
2023-07-10T12:36:01.651Z,1018
2023-07-10T12:37:02.677Z,1018
2023-07-10T12:38:02.604Z,1017.9
2023-07-10T12:39:02.612Z,1017.9
2023-07-10T12:40:02.536Z,1017.8
2023-07-10T12:41:02.503Z,1017.7
2023-07-10T12:42:02.428Z,1017.6
2023-07-10T12:43:02.460Z,1017.5
2023-07-10T12:44:02.427Z,1017.5
2023-07-10T12:45:02.533Z,1017.4
2023-07-10T12:47:02.488Z,1017.5
2023-07-10T12:48:02.447Z,1017.5